Mayport Ns (Adm David L. Mcdonald Field) Airport Mayport US
ICAO: KNRB
IATA: NRB
Category: Medium
Scheduled Services: No

Elevation: 15 ft
TransAlt. 18000 ft.

Airport Communications:
JACKSONVILLE APP/DEP:124.9
ATIS:26.86
GND:126.5
PTD:30.85
TWR:118.75

KNRB Zoom In..

Runways:

(A) RW 05 length 8001 ft width 200 ft
---- / hdg 46

(B) RW 23 length 8001 ft width 200 ft
---- / hdg 226

Location; KNRB
Day. 11 / Time. 19.52 Zulu
* Altimeter: 29.83
* Temperature: 33° c. 91.4°f.
* Wind from: 130° Speed 11 kn.
Dewpoint: 25° c.
Visibility: 10 Statute Miles.
Clouds: Clear (automated report).

KNRB 111952Z AUTO 13011KT 10SM CLR 33/25 A2983 RMK AO2 SLP100 T03330250

Going to: --> -->


Wind From 130°
Speed 11 kn.

 
 
jpsmedia worldairports.se 2020   terms of use